sensor_id;sensor_type;location;lat;lon;timestamp;pressure;altitude;pressure_sealevel;temperature;humidity
44839;BME280;30576;42.098;24.876;2023-08-17T00:02:12;99620.56;;;24.61;48.83
44839;BME280;30576;42.098;24.876;2023-08-17T00:04:38;99618.19;;;24.81;48.16
44839;BME280;30576;42.098;24.876;2023-08-17T00:07:04;99632.94;;;24.88;48.37
44839;BME280;30576;42.098;24.876;2023-08-17T00:09:30;99627.38;;;24.78;48.80
44839;BME280;30576;42.098;24.876;2023-08-17T00:11:55;99627.69;;;24.62;48.72
44839;BME280;30576;42.098;24.876;2023-08-17T00:14:21;99602.06;;;24.44;48.65
44839;BME280;30576;42.098;24.876;2023-08-17T00:16:46;99648.13;;;24.65;48.86
44839;BME280;30576;42.098;24.876;2023-08-17T00:19:12;99627.00;;;24.35;49.29
44839;BME280;30576;42.098;24.876;2023-08-17T00:21:37;99618.47;;;24.28;49.59
44839;BME280;30576;42.098;24.876;2023-08-17T00:24:03;99614.25;;;24.37;49.02
44839;BME280;30576;42.098;24.876;2023-08-17T00:26:29;99591.72;;;24.38;48.82
44839;BME280;30576;42.098;24.876;2023-08-17T00:28:55;99609.16;;;24.45;49.06
44839;BME280;30576;42.098;24.876;2023-08-17T00:31:20;99606.63;;;24.30;49.24
44839;BME280;30576;42.098;24.876;2023-08-17T00:33:45;99618.03;;;24.34;49.20
44839;BME280;30576;42.098;24.876;2023-08-17T00:36:11;99588.47;;;24.08;49.16
44839;BME280;30576;42.098;24.876;2023-08-17T00:38:37;99622.16;;;24.27;49.26
44839;BME280;30576;42.098;24.876;2023-08-17T00:41:02;99595.50;;;23.98;49.49
44839;BME280;30576;42.098;24.876;2023-08-17T00:43:29;99638.84;;;24.32;49.66
44839;BME280;30576;42.098;24.876;2023-08-17T00:45:55;99623.72;;;23.80;50.36
44839;BME280;30576;42.098;24.876;2023-08-17T00:48:21;99585.81;;;23.18;51.44
44839;BME280;30576;42.098;24.876;2023-08-17T00:50:48;99608.19;;;23.83;50.32
44839;BME280;30576;42.098;24.876;2023-08-17T00:53:15;99605.09;;;23.51;50.98
44839;BME280;30576;42.098;24.876;2023-08-17T00:55:42;99614.34;;;23.59;51.17
44839;BME280;30576;42.098;24.876;2023-08-17T00:58:07;99581.28;;;23.45;52.06
44839;BME280;30576;42.098;24.876;2023-08-17T01:00:33;99613.72;;;23.56;53.11
44839;BME280;30576;42.098;24.876;2023-08-17T01:02:59;99638.16;;;23.78;53.13
44839;BME280;30576;42.098;24.876;2023-08-17T01:05:25;99642.47;;;23.81;52.76
44839;BME280;30576;42.098;24.876;2023-08-17T01:07:50;99594.31;;;23.51;53.11
44839;BME280;30576;42.098;24.876;2023-08-17T01:10:16;99605.63;;;23.69;53.24
44839;BME280;30576;42.098;24.876;2023-08-17T01:13:03;99642.16;;;23.86;53.48
44839;BME280;30576;42.098;24.876;2023-08-17T01:15:36;99644.75;;;23.74;53.71
44839;BME280;30576;42.098;24.876;2023-08-17T01:18:25;99628.66;;;23.60;54.11
44839;BME280;30576;42.098;24.876;2023-08-17T01:20:53;99611.13;;;23.41;54.52
44839;BME280;30576;42.098;24.876;2023-08-17T01:23:19;99615.00;;;23.50;54.19
44839;BME280;30576;42.098;24.876;2023-08-17T01:25:45;99616.75;;;23.51;54.40
44839;BME280;30576;42.098;24.876;2023-08-17T01:28:10;99609.41;;;23.40;54.71
44839;BME280;30576;42.098;24.876;2023-08-17T01:30:54;99627.19;;;23.56;54.55
44839;BME280;30576;42.098;24.876;2023-08-17T01:33:28;99572.47;;;23.17;54.78
44839;BME280;30576;42.098;24.876;2023-08-17T01:36:04;99639.81;;;23.15;56.05
44839;BME280;30576;42.098;24.876;2023-08-17T01:38:31;99631.44;;;23.20;56.46
44839;BME280;30576;42.098;24.876;2023-08-17T01:40:58;99618.91;;;23.06;56.55
44839;BME280;30576;42.098;24.876;2023-08-17T01:43:26;99614.03;;;22.85;57.12
44839;BME280;30576;42.098;24.876;2023-08-17T01:45:52;99619.22;;;23.01;57.00
44839;BME280;30576;42.098;24.876;2023-08-17T01:48:17;99655.97;;;23.15;57.18
44839;BME280;30576;42.098;24.876;2023-08-17T01:50:44;99638.03;;;23.01;57.84
44839;BME280;30576;42.098;24.876;2023-08-17T01:53:11;99640.19;;;22.69;59.33
44839;BME280;30576;42.098;24.876;2023-08-17T01:55:38;99644.47;;;22.59;59.53
44839;BME280;30576;42.098;24.876;2023-08-17T01:58:03;99616.31;;;22.37;60.32
44839;BME280;30576;42.098;24.876;2023-08-17T02:00:29;99605.34;;;22.26;60.93
44839;BME280;30576;42.098;24.876;2023-08-17T02:02:54;99595.59;;;22.25;61.39
44839;BME280;30576;42.098;24.876;2023-08-17T02:05:20;99606.13;;;22.28;61.71
44839;BME280;30576;42.098;24.876;2023-08-17T02:07:45;99586.00;;;22.21;61.84
44839;BME280;30576;42.098;24.876;2023-08-17T02:10:11;99596.38;;;22.12;62.60
44839;BME280;30576;42.098;24.876;2023-08-17T02:12:36;99601.16;;;22.36;62.52
44839;BME280;30576;42.098;24.876;2023-08-17T02:15:01;99607.00;;;22.28;62.60
44839;BME280;30576;42.098;24.876;2023-08-17T02:17:28;99624.63;;;22.47;61.90
44839;BME280;30576;42.098;24.876;2023-08-17T02:19:54;99635.78;;;22.26;62.11
44839;BME280;30576;42.098;24.876;2023-08-17T02:22:19;99642.22;;;22.24;61.45
44839;BME280;30576;42.098;24.876;2023-08-17T02:24:44;99618.38;;;22.05;60.36
44839;BME280;30576;42.098;24.876;2023-08-17T02:27:11;99619.03;;;21.94;59.90
44839;BME280;30576;42.098;24.876;2023-08-17T02:29:37;99631.59;;;21.93;59.42
44839;BME280;30576;42.098;24.876;2023-08-17T02:32:03;99654.81;;;21.94;59.65
44839;BME280;30576;42.098;24.876;2023-08-17T02:34:28;99635.53;;;21.88;60.02
44839;BME280;30576;42.098;24.876;2023-08-17T02:36:54;99638.31;;;21.86;59.57
44839;BME280;30576;42.098;24.876;2023-08-17T02:39:19;99611.00;;;21.51;59.87
44839;BME280;30576;42.098;24.876;2023-08-17T02:41:45;99615.22;;;21.69;59.84
44839;BME280;30576;42.098;24.876;2023-08-17T02:44:10;99623.03;;;22.01;58.93
44839;BME280;30576;42.098;24.876;2023-08-17T02:46:36;99603.41;;;21.72;59.25
44839;BME280;30576;42.098;24.876;2023-08-17T02:49:01;99627.38;;;21.89;59.22
44839;BME280;30576;42.098;24.876;2023-08-17T02:51:27;99626.03;;;21.96;59.17
44839;BME280;30576;42.098;24.876;2023-08-17T02:53:53;99640.91;;;22.02;59.22
44839;BME280;30576;42.098;24.876;2023-08-17T02:56:18;99632.84;;;22.02;59.17
44839;BME280;30576;42.098;24.876;2023-08-17T02:58:44;99605.34;;;21.70;58.95
44839;BME280;30576;42.098;24.876;2023-08-17T03:01:09;99621.16;;;21.74;59.03
44839;BME280;30576;42.098;24.876;2023-08-17T03:03:35;99642.25;;;21.80;59.60
44839;BME280;30576;42.098;24.876;2023-08-17T03:06:02;99660.94;;;21.96;59.48
44839;BME280;30576;42.098;24.876;2023-08-17T03:08:28;99607.16;;;21.69;59.21
44839;BME280;30576;42.098;24.876;2023-08-17T03:10:53;99631.41;;;21.82;59.04
44839;BME280;30576;42.098;24.876;2023-08-17T03:13:19;99637.53;;;21.84;59.28
44839;BME280;30576;42.098;24.876;2023-08-17T03:15:44;99633.16;;;21.83;59.11
44839;BME280;30576;42.098;24.876;2023-08-17T03:18:10;99632.09;;;21.71;59.31
44839;BME280;30576;42.098;24.876;2023-08-17T03:20:35;99618.00;;;21.68;59.35
44839;BME280;30576;42.098;24.876;2023-08-17T03:23:01;99651.94;;;21.83;59.61
44839;BME280;30576;42.098;24.876;2023-08-17T03:25:26;99634.38;;;21.63;60.08
44839;BME280;30576;42.098;24.876;2023-08-17T03:27:53;99637.81;;;21.65;59.88
44839;BME280;30576;42.098;24.876;2023-08-17T03:30:19;99672.44;;;21.84;59.93
44839;BME280;30576;42.098;24.876;2023-08-17T03:32:44;99646.72;;;21.66;59.86
44839;BME280;30576;42.098;24.876;2023-08-17T03:35:10;99664.38;;;21.84;59.86
44839;BME280;30576;42.098;24.876;2023-08-17T03:37:35;99676.00;;;21.85;59.95
44839;BME280;30576;42.098;24.876;2023-08-17T03:40:01;99669.09;;;21.66;60.05
44839;BME280;30576;42.098;24.876;2023-08-17T03:42:27;99659.59;;;21.60;59.97
44839;BME280;30576;42.098;24.876;2023-08-17T03:44:52;99651.81;;;21.56;60.58
44839;BME280;30576;42.098;24.876;2023-08-17T03:47:19;99649.66;;;21.46;60.52
44839;BME280;30576;42.098;24.876;2023-08-17T03:49:44;99640.84;;;21.44;60.64
44839;BME280;30576;42.098;24.876;2023-08-17T03:52:11;99644.81;;;21.53;60.59
44839;BME280;30576;42.098;24.876;2023-08-17T03:54:37;99659.22;;;21.67;60.63
44839;BME280;30576;42.098;24.876;2023-08-17T03:57:02;99640.81;;;21.60;60.87
44839;BME280;30576;42.098;24.876;2023-08-17T03:59:28;99628.94;;;21.64;60.58
44839;BME280;30576;42.098;24.876;2023-08-17T04:01:53;99612.31;;;21.58;60.74
44839;BME280;30576;42.098;24.876;2023-08-17T04:04:19;99627.66;;;21.70;60.67
44839;BME280;30576;42.098;24.876;2023-08-17T04:06:44;99654.91;;;21.78;60.82
44839;BME280;30576;42.098;24.876;2023-08-17T04:09:10;99679.63;;;21.98;60.78
44839;BME280;30576;42.098;24.876;2023-08-17T04:11:35;99646.38;;;21.86;61.06
44839;BME280;30576;42.098;24.876;2023-08-17T04:14:04;99651.28;;;21.94;60.75
44839;BME280;30576;42.098;24.876;2023-08-17T04:16:30;99615.78;;;21.89;60.82
44839;BME280;30576;42.098;24.876;2023-08-17T04:18:55;99659.09;;;22.26;60.68
44839;BME280;30576;42.098;24.876;2023-08-17T04:21:21;99617.97;;;22.11;60.67
44839;BME280;30576;42.098;24.876;2023-08-17T04:23:47;99615.25;;;22.25;59.40
44839;BME280;30576;42.098;24.876;2023-08-17T04:26:12;99643.47;;;22.32;60.36
44839;BME280;30576;42.098;24.876;2023-08-17T04:28:42;99623.50;;;22.22;60.43
44839;BME280;30576;42.098;24.876;2023-08-17T04:31:07;99639.59;;;22.51;60.17
44839;BME280;30576;42.098;24.876;2023-08-17T04:33:33;99633.53;;;22.62;59.74
44839;BME280;30576;42.098;24.876;2023-08-17T04:35:59;99633.75;;;22.71;59.47
44839;BME280;30576;42.098;24.876;2023-08-17T04:38:26;99624.16;;;22.67;58.98
44839;BME280;30576;42.098;24.876;2023-08-17T04:40:52;99619.16;;;22.76;58.32
44839;BME280;30576;42.098;24.876;2023-08-17T04:43:17;99660.44;;;23.02;58.33
44839;BME280;30576;42.098;24.876;2023-08-17T04:45:43;99655.28;;;22.99;58.44
44839;BME280;30576;42.098;24.876;2023-08-17T04:48:09;99663.19;;;23.28;58.02
44839;BME280;30576;42.098;24.876;2023-08-17T04:50:35;99645.56;;;23.23;57.75
44839;BME280;30576;42.098;24.876;2023-08-17T04:53:01;99633.22;;;23.06;57.29
44839;BME280;30576;42.098;24.876;2023-08-17T04:55:28;99652.22;;;23.31;57.54
44839;BME280;30576;42.098;24.876;2023-08-17T04:57:53;99650.16;;;23.21;57.50
44839;BME280;30576;42.098;24.876;2023-08-17T05:00:18;99622.09;;;23.26;57.41
44839;BME280;30576;42.098;24.876;2023-08-17T05:06:14;99672.09;;;23.94;55.58
44839;BME280;30576;42.098;24.876;2023-08-17T05:08:39;99621.56;;;23.33;56.96
44839;BME280;30576;42.098;24.876;2023-08-17T05:11:05;99631.91;;;23.52;57.08
44839;BME280;30576;42.098;24.876;2023-08-17T05:13:30;99630.28;;;23.75;56.66
44839;BME280;30576;42.098;24.876;2023-08-17T05:15:55;99655.38;;;24.15;56.25
44839;BME280;30576;42.098;24.876;2023-08-17T05:18:21;99650.00;;;24.15;56.66
44839;BME280;30576;42.098;24.876;2023-08-17T05:20:47;99643.09;;;24.10;55.61
44839;BME280;30576;42.098;24.876;2023-08-17T05:23:12;99601.00;;;23.84;55.82
44839;BME280;30576;42.098;24.876;2023-08-17T05:25:38;99628.88;;;24.08;55.44
44839;BME280;30576;42.098;24.876;2023-08-17T05:28:10;99643.84;;;24.49;55.35
44839;BME280;30576;42.098;24.876;2023-08-17T05:30:35;99649.88;;;24.66;55.96
44839;BME280;30576;42.098;24.876;2023-08-17T05:36:01;99659.38;;;24.59;55.18
44839;BME280;30576;42.098;24.876;2023-08-17T05:38:27;99652.06;;;24.61;53.23
44839;BME280;30576;42.098;24.876;2023-08-17T05:40:56;99659.41;;;25.07;53.48
44839;BME280;30576;42.098;24.876;2023-08-17T05:43:22;99658.78;;;25.39;52.16
44839;BME280;30576;42.098;24.876;2023-08-17T05:45:47;99626.69;;;25.23;52.19
44839;BME280;30576;42.098;24.876;2023-08-17T05:48:13;99672.81;;;25.67;51.95
44839;BME280;30576;42.098;24.876;2023-08-17T05:50:41;99651.44;;;25.52;50.35
44839;BME280;30576;42.098;24.876;2023-08-17T05:53:07;99641.66;;;25.74;50.23
44839;BME280;30576;42.098;24.876;2023-08-17T05:55:33;99626.72;;;26.15;49.07
44839;BME280;30576;42.098;24.876;2023-08-17T06:16:51;99646.41;;;28.20;41.73
44839;BME280;30576;42.098;24.876;2023-08-17T06:19:16;99644.19;;;27.73;42.10
44839;BME280;30576;42.098;24.876;2023-08-17T06:21:42;99611.16;;;27.89;41.43
44839;BME280;30576;42.098;24.876;2023-08-17T06:24:07;99650.69;;;28.63;40.54
44839;BME280;30576;42.098;24.876;2023-08-17T06:26:33;99643.16;;;28.77;40.83
44839;BME280;30576;42.098;24.876;2023-08-17T06:28:58;99633.59;;;29.31;40.53
44839;BME280;30576;42.098;24.876;2023-08-17T06:31:24;99624.56;;;29.11;40.22
44839;BME280;30576;42.098;24.876;2023-08-17T06:33:55;99666.06;;;29.23;40.38
44839;BME280;30576;42.098;24.876;2023-08-17T06:36:21;99642.69;;;29.50;40.07
44839;BME280;30576;42.098;24.876;2023-08-17T06:38:46;99658.00;;;29.51;38.67
44839;BME280;30576;42.098;24.876;2023-08-17T06:41:12;99642.22;;;29.84;38.58
44839;BME280;30576;42.098;24.876;2023-08-17T06:43:38;99635.59;;;29.76;37.90
44839;BME280;30576;42.098;24.876;2023-08-17T06:46:03;99643.75;;;30.24;37.65
44839;BME280;30576;42.098;24.876;2023-08-17T06:48:29;99630.63;;;30.47;36.55
44839;BME280;30576;42.098;24.876;2023-08-17T06:50:56;99668.81;;;30.55;37.06
44839;BME280;30576;42.098;24.876;2023-08-17T06:53:22;99656.97;;;30.18;38.53
44839;BME280;30576;42.098;24.876;2023-08-17T06:55:47;99643.59;;;29.97;38.20
44839;BME280;30576;42.098;24.876;2023-08-17T06:58:13;99644.88;;;30.31;37.47
44839;BME280;30576;42.098;24.876;2023-08-17T07:00:38;99645.91;;;30.94;37.34
44839;BME280;30576;42.098;24.876;2023-08-17T07:03:06;99662.75;;;31.69;36.07
44839;BME280;30576;42.098;24.876;2023-08-17T07:05:32;99644.03;;;31.30;36.57
44839;BME280;30576;42.098;24.876;2023-08-17T07:07:58;99615.56;;;31.24;36.69
44839;BME280;30576;42.098;24.876;2023-08-17T07:10:24;99619.59;;;30.84;37.45
44839;BME280;30576;42.098;24.876;2023-08-17T07:12:50;99637.50;;;31.23;37.20
44839;BME280;30576;42.098;24.876;2023-08-17T07:15:16;99642.88;;;31.33;37.01
44839;BME280;30576;42.098;24.876;2023-08-17T07:17:41;99641.78;;;31.70;37.14
44839;BME280;30576;42.098;24.876;2023-08-17T07:20:07;99613.16;;;31.66;35.49
44839;BME280;30576;42.098;24.876;2023-08-17T07:22:33;99637.91;;;31.81;35.33
44839;BME280;30576;42.098;24.876;2023-08-17T07:24:58;99612.50;;;32.06;35.17
44839;BME280;30576;42.098;24.876;2023-08-17T07:27:24;99633.28;;;32.34;34.13
44839;BME280;30576;42.098;24.876;2023-08-17T07:29:49;99647.75;;;32.34;33.39
44839;BME280;30576;42.098;24.876;2023-08-17T07:32:15;99622.47;;;32.24;34.05
44839;BME280;30576;42.098;24.876;2023-08-17T07:34:40;99617.25;;;32.39;33.29
44839;BME280;30576;42.098;24.876;2023-08-17T07:37:05;99623.72;;;32.38;33.23
44839;BME280;30576;42.098;24.876;2023-08-17T07:39:32;99625.44;;;32.39;32.85
44839;BME280;30576;42.098;24.876;2023-08-17T07:41:57;99628.56;;;32.60;33.71
44839;BME280;30576;42.098;24.876;2023-08-17T07:44:22;99650.13;;;32.80;33.42
44839;BME280;30576;42.098;24.876;2023-08-17T07:46:48;99619.09;;;33.30;32.52
44839;BME280;30576;42.098;24.876;2023-08-17T07:49:13;99635.28;;;33.57;32.01
44839;BME280;30576;42.098;24.876;2023-08-17T07:51:39;99635.00;;;33.27;33.29
44839;BME280;30576;42.098;24.876;2023-08-17T07:54:04;99616.31;;;32.81;34.86
44839;BME280;30576;42.098;24.876;2023-08-17T07:56:30;99619.38;;;33.68;32.61
44839;BME280;30576;42.098;24.876;2023-08-17T07:58:56;99633.41;;;33.82;32.30
44839;BME280;30576;42.098;24.876;2023-08-17T08:01:22;99631.81;;;33.96;31.56
44839;BME280;30576;42.098;24.876;2023-08-17T08:03:47;99612.38;;;33.66;32.55
44839;BME280;30576;42.098;24.876;2023-08-17T08:06:13;99616.34;;;33.71;31.38
44839;BME280;30576;42.098;24.876;2023-08-17T08:08:39;99612.94;;;33.53;30.68
44839;BME280;30576;42.098;24.876;2023-08-17T08:11:06;99604.41;;;33.48;30.49
44839;BME280;30576;42.098;24.876;2023-08-17T08:13:31;99620.06;;;33.70;30.57
44839;BME280;30576;42.098;24.876;2023-08-17T08:15:58;99622.50;;;33.57;30.32
44839;BME280;30576;42.098;24.876;2023-08-17T08:18:31;99623.63;;;33.87;30.04
44839;BME280;30576;42.098;24.876;2023-08-17T08:20:57;99588.47;;;34.16;30.44
44839;BME280;30576;42.098;24.876;2023-08-17T08:23:22;99591.72;;;33.63;30.58
44839;BME280;30576;42.098;24.876;2023-08-17T08:25:47;99576.94;;;33.89;30.69
44839;BME280;30576;42.098;24.876;2023-08-17T08:28:13;99583.75;;;34.41;30.50
44839;BME280;30576;42.098;24.876;2023-08-17T08:30:39;99593.06;;;34.23;29.73
44839;BME280;30576;42.098;24.876;2023-08-17T08:33:04;99616.31;;;34.90;29.56
44839;BME280;30576;42.098;24.876;2023-08-17T08:35:30;99558.66;;;34.84;28.76
44839;BME280;30576;42.098;24.876;2023-08-17T08:37:55;99571.31;;;35.23;28.15
44839;BME280;30576;42.098;24.876;2023-08-17T08:40:27;99587.78;;;35.61;28.71
44839;BME280;30576;42.098;24.876;2023-08-17T08:42:52;99578.84;;;35.59;28.43
44839;BME280;30576;42.098;24.876;2023-08-17T08:45:18;99601.38;;;34.70;29.24
44839;BME280;30576;42.098;24.876;2023-08-17T08:47:45;99570.81;;;34.58;29.42
44839;BME280;30576;42.098;24.876;2023-08-17T08:50:17;99589.91;;;35.12;29.33
44839;BME280;30576;42.098;24.876;2023-08-17T08:52:50;99568.19;;;34.88;30.35
44839;BME280;30576;42.098;24.876;2023-08-17T08:55:18;99576.84;;;35.00;29.70
44839;BME280;30576;42.098;24.876;2023-08-17T08:57:46;99559.69;;;35.21;29.28
44839;BME280;30576;42.098;24.876;2023-08-17T09:00:14;99579.44;;;35.39;29.43
44839;BME280;30576;42.098;24.876;2023-08-17T09:02:41;99573.56;;;35.42;29.34
44839;BME280;30576;42.098;24.876;2023-08-17T09:05:10;99571.31;;;35.61;28.13
44839;BME280;30576;42.098;24.876;2023-08-17T09:07:37;99548.31;;;35.32;28.90
44839;BME280;30576;42.098;24.876;2023-08-17T09:10:04;99559.66;;;35.59;28.53
44839;BME280;30576;42.098;24.876;2023-08-17T09:12:30;99538.81;;;35.20;28.16
44839;BME280;30576;42.098;24.876;2023-08-17T09:14:56;99554.47;;;35.49;27.80
44839;BME280;30576;42.098;24.876;2023-08-17T09:17:25;99573.59;;;34.50;29.14
44839;BME280;30576;42.098;24.876;2023-08-17T09:19:51;99543.34;;;34.66;29.58
44839;BME280;30576;42.098;24.876;2023-08-17T09:22:24;99539.09;;;35.25;28.66
44839;BME280;30576;42.098;24.876;2023-08-17T09:24:50;99568.28;;;35.71;28.11
44839;BME280;30576;42.098;24.876;2023-08-17T09:27:16;99559.41;;;35.68;28.08
44839;BME280;30576;42.098;24.876;2023-08-17T09:29:45;99552.66;;;35.71;27.85
44839;BME280;30576;42.098;24.876;2023-08-17T09:32:16;99536.28;;;35.48;28.02
44839;BME280;30576;42.098;24.876;2023-08-17T09:34:43;99531.78;;;35.55;28.24
44839;BME280;30576;42.098;24.876;2023-08-17T09:37:08;99557.50;;;35.39;28.71
44839;BME280;30576;42.098;24.876;2023-08-17T09:39:34;99518.34;;;34.92;29.04
44839;BME280;30576;42.098;24.876;2023-08-17T09:42:00;99573.75;;;35.41;28.34
44839;BME280;30576;42.098;24.876;2023-08-17T09:44:26;99546.50;;;35.54;27.33
44839;BME280;30576;42.098;24.876;2023-08-17T09:46:55;99548.59;;;35.97;27.70
44839;BME280;30576;42.098;24.876;2023-08-17T09:49:23;99555.78;;;36.49;26.81
44839;BME280;30576;42.098;24.876;2023-08-17T09:51:49;99551.81;;;35.56;27.91
44839;BME280;30576;42.098;24.876;2023-08-17T09:54:22;99563.84;;;35.17;27.82
44839;BME280;30576;42.098;24.876;2023-08-17T10:00:08;99506.34;;;34.70;28.42
44839;BME280;30576;42.098;24.876;2023-08-17T10:02:34;99493.69;;;34.69;28.67
44839;BME280;30576;42.098;24.876;2023-08-17T10:05:00;99486.97;;;34.95;26.96
44839;BME280;30576;42.098;24.876;2023-08-17T10:07:30;99534.59;;;35.32;26.96
44839;BME280;30576;42.098;24.876;2023-08-17T10:10:04;99470.09;;;35.21;27.07
44839;BME280;30576;42.098;24.876;2023-08-17T10:12:42;99524.88;;;35.44;26.99
44839;BME280;30576;42.098;24.876;2023-08-17T10:15:15;99489.06;;;34.70;27.17
44839;BME280;30576;42.098;24.876;2023-08-17T10:17:55;99529.28;;;34.69;28.86
44839;BME280;30576;42.098;24.876;2023-08-17T10:20:29;99473.44;;;34.78;28.01
44839;BME280;30576;42.098;24.876;2023-08-17T10:23:10;99484.28;;;34.49;28.98
44839;BME280;30576;42.098;24.876;2023-08-17T10:25:41;99483.97;;;34.67;28.82
44839;BME280;30576;42.098;24.876;2023-08-17T10:28:24;99437.50;;;34.35;27.06
44839;BME280;30576;42.098;24.876;2023-08-17T10:30:51;99482.53;;;34.79;26.63
44839;BME280;30576;42.098;24.876;2023-08-17T10:33:16;99506.53;;;35.30;26.20
44839;BME280;30576;42.098;24.876;2023-08-17T10:36:07;99505.09;;;35.34;25.96
44839;BME280;30576;42.098;24.876;2023-08-17T10:41:48;99471.84;;;34.84;26.22
44839;BME280;30576;42.098;24.876;2023-08-17T10:49:55;99463.78;;;35.50;26.46
44839;BME280;30576;42.098;24.876;2023-08-17T10:52:29;99430.47;;;34.79;25.80
44839;BME280;30576;42.098;24.876;2023-08-17T10:54:56;99431.16;;;35.11;25.33
44839;BME280;30576;42.098;24.876;2023-08-17T10:57:32;99463.41;;;35.24;25.39
44839;BME280;30576;42.098;24.876;2023-08-17T11:02:43;99447.06;;;35.45;25.09
44839;BME280;30576;42.098;24.876;2023-08-17T11:05:10;99452.50;;;35.60;24.88
44839;BME280;30576;42.098;24.876;2023-08-17T11:07:51;99438.16;;;35.13;24.85
44839;BME280;30576;42.098;24.876;2023-08-17T11:13:40;99463.91;;;35.42;24.74
44839;BME280;30576;42.098;24.876;2023-08-17T11:16:07;99419.91;;;35.06;24.51
44839;BME280;30576;42.098;24.876;2023-08-17T11:18:34;99417.66;;;34.94;25.22
44839;BME280;30576;42.098;24.876;2023-08-17T11:21:01;99443.09;;;35.33;25.13
44839;BME280;30576;42.098;24.876;2023-08-17T11:23:31;99428.88;;;35.00;23.89
44839;BME280;30576;42.098;24.876;2023-08-17T11:25:57;99385.28;;;34.75;23.67
44839;BME280;30576;42.098;24.876;2023-08-17T11:28:23;99373.41;;;34.83;23.77
44839;BME280;30576;42.098;24.876;2023-08-17T11:31:07;99400.44;;;34.86;23.53
44839;BME280;30576;42.098;24.876;2023-08-17T11:33:34;99441.59;;;35.30;23.05
44839;BME280;30576;42.098;24.876;2023-08-17T11:36:04;99424.44;;;35.43;23.17
44839;BME280;30576;42.098;24.876;2023-08-17T11:38:38;99399.19;;;35.48;23.91
44839;BME280;30576;42.098;24.876;2023-08-17T11:41:04;99407.91;;;35.22;22.21
44839;BME280;30576;42.098;24.876;2023-08-17T11:43:32;99402.63;;;35.50;22.54
44839;BME280;30576;42.098;24.876;2023-08-17T11:45:57;99428.91;;;35.96;22.58
44839;BME280;30576;42.098;24.876;2023-08-17T11:48:24;99403.50;;;35.87;22.16
44839;BME280;30576;42.098;24.876;2023-08-17T11:50:56;99395.88;;;35.53;22.64
44839;BME280;30576;42.098;24.876;2023-08-17T11:53:23;99352.81;;;35.02;22.71
44839;BME280;30576;42.098;24.876;2023-08-17T11:55:51;99395.00;;;35.67;23.26
44839;BME280;30576;42.098;24.876;2023-08-17T11:58:17;99383.25;;;35.37;22.46
44839;BME280;30576;42.098;24.876;2023-08-17T12:04:20;99384.59;;;35.77;22.97
44839;BME280;30576;42.098;24.876;2023-08-17T12:06:51;99413.31;;;36.18;23.14
44839;BME280;30576;42.098;24.876;2023-08-17T12:09:22;99367.75;;;36.02;22.33
44839;BME280;30576;42.098;24.876;2023-08-17T12:11:48;99357.88;;;35.49;22.42
44839;BME280;30576;42.098;24.876;2023-08-17T12:14:19;99370.03;;;35.62;22.12
44839;BME280;30576;42.098;24.876;2023-08-17T12:16:48;99394.22;;;36.10;22.49
44839;BME280;30576;42.098;24.876;2023-08-17T12:19:14;99340.16;;;35.67;22.19
44839;BME280;30576;42.098;24.876;2023-08-17T12:21:43;99376.06;;;35.72;21.72
44839;BME280;30576;42.098;24.876;2023-08-17T12:24:10;99378.78;;;35.50;21.80
44839;BME280;30576;42.098;24.876;2023-08-17T12:26:46;99345.50;;;35.75;22.11
44839;BME280;30576;42.098;24.876;2023-08-17T12:29:12;99346.13;;;35.92;21.42
44839;BME280;30576;42.098;24.876;2023-08-17T12:31:38;99345.88;;;36.09;21.88
44839;BME280;30576;42.098;24.876;2023-08-17T12:34:04;99370.63;;;35.94;21.94
44839;BME280;30576;42.098;24.876;2023-08-17T12:36:31;99354.41;;;35.77;21.44
44839;BME280;30576;42.098;24.876;2023-08-17T12:38:57;99346.31;;;35.91;21.55
44839;BME280;30576;42.098;24.876;2023-08-17T12:41:22;99353.63;;;35.83;21.29
44839;BME280;30576;42.098;24.876;2023-08-17T12:43:48;99345.59;;;35.82;21.71
44839;BME280;30576;42.098;24.876;2023-08-17T12:46:13;99374.69;;;35.76;22.31
44839;BME280;30576;42.098;24.876;2023-08-17T12:48:40;99348.25;;;35.75;22.04
44839;BME280;30576;42.098;24.876;2023-08-17T12:51:06;99286.69;;;35.56;22.13
44839;BME280;30576;42.098;24.876;2023-08-17T12:53:31;99314.22;;;35.70;22.36
44839;BME280;30576;42.098;24.876;2023-08-17T12:55:57;99342.81;;;35.97;22.92
44839;BME280;30576;42.098;24.876;2023-08-17T12:58:23;99367.03;;;36.36;23.36
44839;BME280;30576;42.098;24.876;2023-08-17T13:00:49;99348.31;;;36.47;23.29
44839;BME280;30576;42.098;24.876;2023-08-17T13:03:17;99366.16;;;36.14;23.34
44839;BME280;30576;42.098;24.876;2023-08-17T13:05:42;99357.50;;;35.74;23.16
44839;BME280;30576;42.098;24.876;2023-08-17T13:08:08;99336.09;;;35.63;23.31
44839;BME280;30576;42.098;24.876;2023-08-17T13:10:34;99304.38;;;35.75;23.36
44839;BME280;30576;42.098;24.876;2023-08-17T13:13:00;99326.13;;;35.98;23.60
44839;BME280;30576;42.098;24.876;2023-08-17T13:15:25;99352.81;;;36.54;24.22
44839;BME280;30576;42.098;24.876;2023-08-17T13:17:51;99347.06;;;36.49;24.24
44839;BME280;30576;42.098;24.876;2023-08-17T13:20:16;99334.56;;;35.97;24.19
44839;BME280;30576;42.098;24.876;2023-08-17T13:22:42;99368.13;;;36.20;23.85
44839;BME280;30576;42.098;24.876;2023-08-17T13:25:07;99336.38;;;35.90;23.23
44839;BME280;30576;42.098;24.876;2023-08-17T13:27:33;99353.25;;;36.30;23.96
44839;BME280;30576;42.098;24.876;2023-08-17T13:29:58;99344.63;;;36.61;23.04
44839;BME280;30576;42.098;24.876;2023-08-17T13:32:25;99329.19;;;36.60;23.92
44839;BME280;30576;42.098;24.876;2023-08-17T13:34:51;99339.00;;;36.41;24.10
44839;BME280;30576;42.098;24.876;2023-08-17T13:37:20;99308.03;;;36.26;24.56